createdAt,value
2022-12-18T00:02:59.002Z,101813.19
2022-12-18T00:06:03.262Z,101815.25
2022-12-18T00:09:06.035Z,101817.88
2022-12-18T00:15:18.457Z,101837.34
2022-12-18T00:18:21.454Z,101843.00
2022-12-18T00:21:24.127Z,101849.03
2022-12-18T00:24:27.574Z,101842.41
2022-12-18T00:27:30.327Z,101837.88
2022-12-18T00:30:33.383Z,101846.09
2022-12-18T00:33:37.722Z,101860.47
2022-12-18T00:36:42.191Z,101861.66
2022-12-18T00:39:44.917Z,101860.81
2022-12-18T00:42:56.809Z,101870.78
2022-12-18T00:45:59.598Z,101861.00
2022-12-18T00:49:02.717Z,101864.00
2022-12-18T00:52:05.704Z,101861.56
2022-12-18T00:55:09.243Z,101874.66
2022-12-18T00:58:13.152Z,101888.44
2022-12-18T01:01:16.907Z,101886.06
2022-12-18T01:04:19.725Z,101901.37
2022-12-18T01:07:22.834Z,101902.97
2022-12-18T01:10:26.423Z,101912.09
2022-12-18T01:13:33.524Z,101898.44
2022-12-18T01:16:36.309Z,101903.63
2022-12-18T01:19:40.775Z,101907.75
2022-12-18T01:22:46.146Z,101909.72
2022-12-18T01:25:49.253Z,101903.91
2022-12-18T01:28:52.363Z,101913.81
2022-12-18T01:31:57.434Z,101905.72
2022-12-18T01:35:00.230Z,101910.53
2022-12-18T01:38:03.583Z,101913.84
2022-12-18T01:41:06.297Z,101916.19
2022-12-18T01:44:49.513Z,101913.34
2022-12-18T01:47:55.927Z,101918.53
2022-12-18T01:50:58.983Z,101918.91
2022-12-18T01:54:01.693Z,101923.00
2022-12-18T01:57:06.038Z,101926.78
2022-12-18T02:00:22.593Z,101931.19
2022-12-18T02:03:27.055Z,101916.44
2022-12-18T02:06:42.780Z,101925.72
2022-12-18T02:09:56.182Z,101928.53
2022-12-18T02:13:15.541Z,101934.50
2022-12-18T02:16:30.244Z,101939.25
2022-12-18T02:19:48.285Z,101941.50
2022-12-18T02:23:12.623Z,101943.62
2022-12-18T02:26:35.848Z,101945.25
2022-12-18T02:29:58.824Z,101946.28
2022-12-18T02:33:07.586Z,101961.63
2022-12-18T02:36:12.155Z,101966.34
2022-12-18T02:39:17.146Z,101973.38
2022-12-18T02:42:21.132Z,101970.13
2022-12-18T02:45:24.404Z,101980.44
2022-12-18T02:48:36.345Z,101978.87
2022-12-18T02:52:10.378Z,101983.72
2022-12-18T02:55:38.288Z,101984.78
2022-12-18T02:58:50.873Z,101990.41
2022-12-18T03:02:04.608Z,101987.56
2022-12-18T03:05:20.594Z,102002.69
2022-12-18T03:08:29.301Z,102006.00
2022-12-18T03:11:59.361Z,102004.41
2022-12-18T03:15:18.700Z,102005.06
2022-12-18T03:18:31.348Z,101994.31
2022-12-18T03:21:41.901Z,101998.59
2022-12-18T03:24:47.585Z,102004.16
2022-12-18T03:27:57.617Z,102014.38
2022-12-18T03:31:02.993Z,102021.38
2022-12-18T03:34:15.681Z,102022.00
2022-12-18T03:37:19.109Z,102021.59
2022-12-18T03:40:28.363Z,102030.97
2022-12-18T03:43:47.588Z,102043.25
2022-12-18T03:46:53.575Z,102042.44
2022-12-18T03:50:17.536Z,102045.97
2022-12-18T03:53:42.948Z,102041.66
2022-12-18T03:56:52.864Z,102047.59
2022-12-18T04:00:11.850Z,102049.78
2022-12-18T04:03:22.571Z,102044.22
2022-12-18T04:06:31.061Z,102048.66
2022-12-18T04:09:35.659Z,102044.66
2022-12-18T04:12:39.967Z,102045.31
2022-12-18T04:15:45.753Z,102045.97
2022-12-18T04:18:49.407Z,102048.69
2022-12-18T04:21:52.195Z,102053.66
2022-12-18T04:24:55.386Z,102062.75
2022-12-18T04:27:58.429Z,102075.88
2022-12-18T04:31:01.443Z,102073.38
2022-12-18T04:34:04.798Z,102066.84
2022-12-18T04:37:09.767Z,102065.66
2022-12-18T04:40:13.080Z,102073.13
2022-12-18T04:43:16.514Z,102087.69
2022-12-18T04:46:19.342Z,102086.41
2022-12-18T04:49:22.470Z,102083.03
2022-12-18T04:52:25.246Z,102079.06
2022-12-18T04:55:28.660Z,102083.88
2022-12-18T04:58:31.316Z,102098.53
2022-12-18T05:01:35.171Z,102108.28
2022-12-18T05:04:40.456Z,102097.03
2022-12-18T05:07:43.602Z,102105.63
2022-12-18T05:10:46.295Z,102102.44
2022-12-18T05:13:49.395Z,102105.72
2022-12-18T05:16:53.965Z,102092.44
2022-12-18T05:19:59.832Z,102106.12
2022-12-18T05:23:02.575Z,102117.87
2022-12-18T05:26:07.552Z,102127.03
2022-12-18T05:29:13.347Z,102117.66
2022-12-18T05:32:17.164Z,102121.75
2022-12-18T05:35:20.025Z,102123.91
2022-12-18T05:38:25.134Z,102129.50
2022-12-18T05:41:28.893Z,102133.00
2022-12-18T05:44:31.915Z,102134.72
2022-12-18T05:47:34.711Z,102132.25
2022-12-18T05:50:39.598Z,102139.41
2022-12-18T05:53:43.596Z,102140.75
2022-12-18T05:56:48.806Z,102149.56
2022-12-18T05:59:51.926Z,102158.09
2022-12-18T06:02:55.357Z,102156.94
2022-12-18T06:05:58.445Z,102161.03
2022-12-18T06:09:02.524Z,102162.09
2022-12-18T06:12:06.053Z,102168.63
2022-12-18T06:15:09.401Z,102164.12
2022-12-18T06:18:12.533Z,102160.13
2022-12-18T06:21:15.271Z,102162.88
2022-12-18T06:24:18.423Z,102169.84
2022-12-18T06:27:21.601Z,102183.19
2022-12-18T06:30:24.654Z,102179.13
2022-12-18T06:33:29.207Z,102193.53
2022-12-18T06:36:32.649Z,102186.66
2022-12-18T06:39:35.396Z,102187.62
2022-12-18T06:42:38.489Z,102195.78
2022-12-18T06:45:41.394Z,102201.16
2022-12-18T06:48:47.448Z,102198.81
2022-12-18T06:51:50.162Z,102208.19
2022-12-18T06:54:53.200Z,102205.50
2022-12-18T06:57:55.870Z,102212.81
2022-12-18T07:01:03.160Z,102216.84
2022-12-18T07:04:06.026Z,102224.47
2022-12-18T07:07:09.113Z,102237.97
2022-12-18T07:10:12.037Z,102242.78
2022-12-18T07:13:15.111Z,102238.22
2022-12-18T07:16:25.352Z,102249.81
2022-12-18T07:19:28.925Z,102252.47
2022-12-18T07:22:32.780Z,102257.56
2022-12-18T07:25:37.226Z,102262.88
2022-12-18T07:28:41.506Z,102269.59
2022-12-18T07:31:44.853Z,102279.28
2022-12-18T07:34:47.577Z,102278.22
2022-12-18T07:37:50.486Z,102288.69
2022-12-18T07:40:53.242Z,102301.69
2022-12-18T07:43:56.288Z,102299.25
2022-12-18T07:46:59.064Z,102307.66
2022-12-18T07:50:02.036Z,102305.03
2022-12-18T07:53:05.925Z,102314.03
2022-12-18T07:56:27.070Z,102307.06
2022-12-18T07:59:30.723Z,102314.78
2022-12-18T08:02:33.983Z,102320.44
2022-12-18T08:05:37.774Z,102331.47
2022-12-18T08:08:42.572Z,102336.88
2022-12-18T08:11:45.743Z,102343.19
2022-12-18T08:14:48.482Z,102345.50
2022-12-18T08:17:51.531Z,102347.19
2022-12-18T08:20:54.268Z,102342.84
2022-12-18T08:24:00.260Z,102351.09
2022-12-18T08:30:19.219Z,102348.22
2022-12-18T08:33:22.073Z,102344.41
2022-12-18T08:36:25.763Z,102348.97
2022-12-18T08:39:29.733Z,102354.69
2022-12-18T08:42:52.960Z,102363.97
2022-12-18T08:45:55.777Z,102353.56
2022-12-18T08:48:59.224Z,102351.03
2022-12-18T08:52:03.948Z,102353.84
2022-12-18T08:55:07.806Z,102352.41
2022-12-18T08:58:10.570Z,102348.87
2022-12-18T09:01:14.897Z,102355.25
2022-12-18T09:04:18.024Z,102346.00
2022-12-18T09:07:21.013Z,102345.47
2022-12-18T09:10:24.057Z,102349.34
2022-12-18T09:13:27.480Z,102353.34
2022-12-18T09:16:32.519Z,102346.22
2022-12-18T09:19:36.027Z,102344.47
2022-12-18T09:22:38.725Z,102350.84
2022-12-18T09:25:41.986Z,102353.88
2022-12-18T09:28:45.016Z,102362.59
2022-12-18T09:31:48.364Z,102354.16
2022-12-18T09:34:50.984Z,102358.38
2022-12-18T09:37:54.567Z,102354.22
2022-12-18T09:41:02.554Z,102361.06
2022-12-18T09:44:25.837Z,102361.25
2022-12-18T09:47:39.082Z,102359.91
2022-12-18T09:50:42.371Z,102357.00
2022-12-18T09:53:51.328Z,102350.09
2022-12-18T09:56:54.507Z,102357.38
2022-12-18T10:00:06.408Z,102355.75
2022-12-18T10:03:16.156Z,102339.56
2022-12-18T10:06:23.657Z,102354.00
2022-12-18T10:09:42.394Z,102351.84
2022-12-18T10:13:07.517Z,102360.03
2022-12-18T10:16:17.416Z,102349.94
2022-12-18T10:19:37.575Z,102363.22
2022-12-18T10:22:46.413Z,102354.75
2022-12-18T10:26:07.508Z,102357.62
2022-12-18T10:29:15.846Z,102345.28
2022-12-18T10:32:28.979Z,102342.81
2022-12-18T10:35:31.758Z,102343.38
2022-12-18T10:38:35.426Z,102343.31
2022-12-18T10:41:38.080Z,102343.69
2022-12-18T10:44:41.852Z,102338.69
2022-12-18T10:47:49.752Z,102330.97
2022-12-18T10:54:18.544Z,102321.44
2022-12-18T10:57:27.543Z,102318.44
2022-12-18T11:00:31.628Z,102327.38
2022-12-18T11:04:01.764Z,102321.16
2022-12-18T11:07:08.003Z,102317.81
2022-12-18T11:10:12.573Z,102320.66
2022-12-18T11:13:24.405Z,102321.91
2022-12-18T11:16:30.198Z,102322.28
2022-12-18T11:19:42.053Z,102315.75
2022-12-18T11:22:59.631Z,102317.03
2022-12-18T11:26:05.216Z,102317.56
2022-12-18T11:29:18.239Z,102318.16
2022-12-18T11:32:30.899Z,102319.00
2022-12-18T11:35:48.922Z,102305.91
2022-12-18T11:38:55.794Z,102296.41
2022-12-18T11:42:14.248Z,102302.44
2022-12-18T11:52:29.251Z,102287.00
2022-12-18T11:55:41.352Z,102287.00
2022-12-18T11:58:48.994Z,102296.94
2022-12-18T12:01:57.295Z,102298.34
2022-12-18T12:05:23.760Z,102302.94
2022-12-18T12:09:05.293Z,102307.09
2022-12-18T12:12:14.199Z,102294.19
2022-12-18T12:15:55.753Z,102298.13
2022-12-18T12:19:19.231Z,102292.00
2022-12-18T12:22:27.294Z,102294.84
2022-12-18T12:25:41.922Z,102292.53
2022-12-18T12:28:59.901Z,102301.69
2022-12-18T12:32:13.537Z,102294.59
2022-12-18T12:39:01.031Z,102311.53
2022-12-18T12:42:35.191Z,102311.53
2022-12-18T12:45:49.500Z,102323.75
2022-12-18T12:48:59.563Z,102322.13
2022-12-18T12:52:15.211Z,102320.56
2022-12-18T12:55:22.299Z,102323.62
2022-12-18T12:58:50.852Z,102325.47
2022-12-18T13:02:18.296Z,102326.84
2022-12-18T13:05:45.360Z,102324.59
2022-12-18T13:09:00.961Z,102339.94
2022-12-18T13:12:24.527Z,102330.59
2022-12-18T13:15:42.741Z,102326.31
2022-12-18T13:18:55.532Z,102325.59
2022-12-18T13:21:58.518Z,102322.19
2022-12-18T13:25:01.699Z,102321.06
2022-12-18T13:28:11.434Z,102339.25
2022-12-18T13:31:35.335Z,102337.81
2022-12-18T13:34:38.530Z,102335.84
2022-12-18T13:37:45.376Z,102337.97
2022-12-18T13:40:48.337Z,102334.63
2022-12-18T13:44:11.126Z,102337.69
2022-12-18T13:47:36.307Z,102333.31
2022-12-18T13:50:40.344Z,102355.28
2022-12-18T13:53:52.204Z,102348.28
2022-12-18T13:56:55.137Z,102350.66
2022-12-18T13:59:59.261Z,102361.00
2022-12-18T14:03:02.539Z,102357.72
2022-12-18T14:06:10.079Z,102355.09
2022-12-18T14:09:36.684Z,102357.81
2022-12-18T14:13:00.668Z,102362.50
2022-12-18T14:16:08.640Z,102369.59
2022-12-18T14:19:18.563Z,102378.87
2022-12-18T14:22:28.920Z,102385.47
2022-12-18T14:25:32.254Z,102387.13
2022-12-18T14:28:45.656Z,102381.41
2022-12-18T14:32:18.933Z,102386.13
2022-12-18T14:35:22.031Z,102403.13
2022-12-18T14:38:49.550Z,102400.94
2022-12-18T14:41:53.851Z,102394.84
2022-12-18T14:45:40.915Z,102397.47
2022-12-18T14:48:48.830Z,102386.37
2022-12-18T14:51:57.131Z,102389.75
2022-12-18T14:55:00.278Z,102394.97
2022-12-18T14:58:04.314Z,102403.78
2022-12-18T15:01:08.629Z,102401.78
2022-12-18T15:04:30.888Z,102411.38
2022-12-18T15:07:50.435Z,102415.78
2022-12-18T15:10:54.268Z,102430.47
2022-12-18T15:14:00.784Z,102430.81
2022-12-18T15:17:26.785Z,102433.91
2022-12-18T15:20:35.876Z,102450.44
2022-12-18T15:23:52.933Z,102448.44
2022-12-18T15:26:56.786Z,102444.28
2022-12-18T15:30:11.462Z,102459.56
2022-12-18T15:33:26.395Z,102460.13
2022-12-18T15:36:37.795Z,102468.53
2022-12-18T15:39:41.456Z,102460.72
2022-12-18T15:43:04.777Z,102466.66
2022-12-18T15:46:13.384Z,102458.50
2022-12-18T15:49:19.120Z,102460.72
2022-12-18T15:52:27.534Z,102462.09
2022-12-18T15:55:55.277Z,102457.28
2022-12-18T15:59:02.464Z,102453.00
2022-12-18T16:02:18.118Z,102463.59
2022-12-18T16:05:26.317Z,102462.41
2022-12-18T16:08:33.741Z,102473.56
2022-12-18T16:11:44.669Z,102486.56
2022-12-18T16:14:52.671Z,102485.06
2022-12-18T16:17:57.084Z,102497.41
2022-12-18T16:21:01.009Z,102505.06
2022-12-18T16:24:05.951Z,102510.72
2022-12-18T16:27:09.925Z,102504.97
2022-12-18T16:30:20.046Z,102509.56
2022-12-18T16:33:24.271Z,102505.91
2022-12-18T16:36:31.416Z,102505.78
2022-12-18T16:39:36.799Z,102497.50
2022-12-18T16:42:42.380Z,102494.56
2022-12-18T16:45:46.440Z,102495.91
2022-12-18T16:48:50.905Z,102487.75
2022-12-18T16:51:54.424Z,102486.56
2022-12-18T16:54:58.697Z,102488.22
2022-12-18T16:58:02.275Z,102484.06
2022-12-18T17:01:10.758Z,102475.47
2022-12-18T17:04:14.750Z,102474.28
2022-12-18T17:07:18.585Z,102479.59
2022-12-18T17:10:22.654Z,102482.78
2022-12-18T17:13:29.224Z,102484.66
2022-12-18T17:16:34.478Z,102489.94
2022-12-18T17:19:39.473Z,102490.41
2022-12-18T17:22:44.312Z,102496.03
2022-12-18T17:25:50.097Z,102493.41
2022-12-18T17:28:53.818Z,102495.56
2022-12-18T17:32:00.485Z,102493.38
2022-12-18T17:35:07.369Z,102489.78
2022-12-18T17:38:25.905Z,102503.00
2022-12-18T17:41:31.449Z,102498.22
2022-12-18T17:44:35.669Z,102493.53
2022-12-18T17:47:39.825Z,102491.28
2022-12-18T17:50:48.059Z,102491.25
2022-12-18T17:53:53.991Z,102488.69
2022-12-18T17:56:57.416Z,102487.25
2022-12-18T18:00:01.462Z,102490.03
2022-12-18T18:03:05.584Z,102486.75
2022-12-18T18:06:10.734Z,102497.50
2022-12-18T18:09:17.596Z,102490.75
2022-12-18T18:12:40.677Z,102504.47
2022-12-18T18:15:46.372Z,102504.50
2022-12-18T18:18:50.901Z,102507.87
2022-12-18T18:21:54.845Z,102505.50
2022-12-18T18:24:59.227Z,102499.25
2022-12-18T18:28:11.737Z,102509.00
2022-12-18T18:31:15.924Z,102507.53
2022-12-18T18:34:23.352Z,102522.66
2022-12-18T18:37:27.929Z,102516.84
2022-12-18T18:40:31.532Z,102528.97
2022-12-18T18:43:36.211Z,102521.00
2022-12-18T18:46:41.229Z,102520.12
2022-12-18T18:49:46.225Z,102520.03
2022-12-18T18:52:49.876Z,102520.06
2022-12-18T18:56:17.460Z,102514.56
2022-12-18T18:59:21.514Z,102515.88
2022-12-18T19:02:36.003Z,102524.84
2022-12-18T19:05:44.471Z,102520.97
2022-12-18T19:09:02.569Z,102518.97
2022-12-18T19:12:25.080Z,102530.78
2022-12-18T19:15:29.212Z,102522.63
2022-12-18T19:18:33.931Z,102521.03
2022-12-18T19:21:38.949Z,102536.03
2022-12-18T19:24:42.584Z,102539.19
2022-12-18T19:27:48.186Z,102543.28
2022-12-18T19:30:58.614Z,102535.19
2022-12-18T19:34:03.587Z,102528.81
2022-12-18T19:37:07.048Z,102544.69
2022-12-18T19:40:12.654Z,102546.19
2022-12-18T19:43:16.587Z,102541.13
2022-12-18T19:46:22.826Z,102542.94
2022-12-18T19:49:26.617Z,102554.00
2022-12-18T19:52:30.406Z,102562.34
2022-12-18T19:55:41.003Z,102569.00
2022-12-18T19:58:47.774Z,102574.53
2022-12-18T20:01:51.950Z,102574.00
2022-12-18T20:04:55.779Z,102581.12
2022-12-18T20:08:00.921Z,102573.25
2022-12-18T20:11:05.410Z,102576.19
2022-12-18T20:14:10.269Z,102574.06
2022-12-18T20:17:15.097Z,102574.94
2022-12-18T20:20:19.621Z,102584.00
2022-12-18T20:23:24.928Z,102581.12
2022-12-18T20:26:28.395Z,102590.50
2022-12-18T20:29:32.507Z,102589.25
2022-12-18T20:32:37.226Z,102589.41
2022-12-18T20:35:41.880Z,102581.94
2022-12-18T20:38:46.378Z,102571.97
2022-12-18T20:41:51.334Z,102562.59
2022-12-18T20:44:54.297Z,102575.53
2022-12-18T20:47:59.674Z,102576.59
2022-12-18T20:51:06.098Z,102563.25
2022-12-18T20:54:11.922Z,102578.03
2022-12-18T20:57:14.942Z,102579.47
2022-12-18T21:00:21.267Z,102584.44
2022-12-18T21:03:24.347Z,102583.38
2022-12-18T21:06:30.072Z,102582.37
2022-12-18T21:09:37.779Z,102582.16
2022-12-18T21:12:58.755Z,102592.53
2022-12-18T21:16:06.577Z,102586.56
2022-12-18T21:19:13.145Z,102575.34
2022-12-18T21:22:16.163Z,102574.28
2022-12-18T21:25:19.408Z,102570.91
2022-12-18T21:28:22.240Z,102564.19
2022-12-18T21:31:29.192Z,102560.25
2022-12-18T21:34:33.347Z,102561.66
2022-12-18T21:37:36.426Z,102566.25
2022-12-18T21:40:39.945Z,102568.31
2022-12-18T21:44:01.820Z,102562.50
2022-12-18T21:47:16.066Z,102555.41
2022-12-18T21:50:25.816Z,102556.50
2022-12-18T21:53:28.591Z,102563.53
2022-12-18T21:56:59.133Z,102554.22
2022-12-18T22:00:02.338Z,102556.66
2022-12-18T22:03:18.277Z,102545.44
2022-12-18T22:06:22.597Z,102555.66
2022-12-18T22:09:25.608Z,102556.94
2022-12-18T22:12:46.594Z,102551.72
2022-12-18T22:15:49.255Z,102552.28
2022-12-18T22:18:52.329Z,102551.97
2022-12-18T22:21:55.041Z,102560.25
2022-12-18T22:24:58.167Z,102560.25
2022-12-18T22:28:19.428Z,102578.19
2022-12-18T22:31:22.616Z,102579.03
2022-12-18T22:34:25.430Z,102583.38
2022-12-18T22:37:28.447Z,102585.91
2022-12-18T22:40:31.146Z,102583.00
2022-12-18T22:43:34.215Z,102569.88
2022-12-18T22:46:42.447Z,102584.91
2022-12-18T22:49:45.509Z,102570.06
2022-12-18T22:52:48.229Z,102572.87
2022-12-18T22:55:51.205Z,102578.50
2022-12-18T22:58:54.128Z,102580.78
2022-12-18T23:01:59.601Z,102584.75
2022-12-18T23:05:02.438Z,102592.63
2022-12-18T23:08:05.642Z,102582.66
2022-12-18T23:11:09.022Z,102578.72
2022-12-18T23:14:13.005Z,102578.53
2022-12-18T23:17:15.656Z,102583.69
2022-12-18T23:20:18.782Z,102582.44
2022-12-18T23:23:21.415Z,102581.19
2022-12-18T23:26:25.752Z,102580.75
2022-12-18T23:29:28.422Z,102579.53
2022-12-18T23:32:31.468Z,102580.22
2022-12-18T23:35:37.911Z,102574.59
2022-12-18T23:38:41.578Z,102569.03
2022-12-18T23:41:44.223Z,102575.25
2022-12-18T23:44:47.176Z,102571.09
2022-12-18T23:47:51.341Z,102568.78
2022-12-18T23:50:54.466Z,102565.28
2022-12-18T23:53:59.729Z,102571.31
2022-12-18T23:57:02.896Z,102565.28
